aviador You're here:

KCDI Decoded Metar

in
Report Time2017-07-26 22:05:00
UTC Time2017-07-26 22:31:52
Flight Rules vfr VFR
Wind230° at 03 kt
W.Decomp.*RWY 22: 3.0 kt HW 0.5 kt RCW
Visibility9999 m
Phenomena:N/A
Clouds:N/A
Expected CloudBase > 4,400 ft AGL from Temp-Dew spread
CeilingNone
Temp27°C
Dew Point16°C (51% RH)
Heat Index27.5°C
QNH1018 hPa
Raw Report
KCDI 262205Z AUTO 23003KT 10SM CLR 27/16 A3007 RMK AO2
T02670161=

Extra information for KCDI:More info

Social comments